sensor_id;sensor_type;location;lat;lon;timestamp;P1;durP1;ratioP1;P2;durP2;ratioP2
54177;SDS011;40085;53.004;6.770;2022-11-30T00:01:15;16.05;;;8.00;;
54177;SDS011;40085;53.004;6.770;2022-11-30T00:03:43;26.92;;;9.48;;
54177;SDS011;40085;53.004;6.770;2022-11-30T00:06:11;20.17;;;8.43;;
54177;SDS011;40085;53.004;6.770;2022-11-30T00:08:40;20.40;;;9.10;;
54177;SDS011;40085;53.004;6.770;2022-11-30T00:11:14;20.65;;;8.90;;
54177;SDS011;40085;53.004;6.770;2022-11-30T00:13:45;20.38;;;7.82;;
54177;SDS011;40085;53.004;6.770;2022-11-30T00:16:13;19.30;;;8.90;;
54177;SDS011;40085;53.004;6.770;2022-11-30T00:18:40;18.50;;;8.18;;
54177;SDS011;40085;53.004;6.770;2022-11-30T00:21:07;23.75;;;8.52;;
54177;SDS011;40085;53.004;6.770;2022-11-30T00:23:37;23.63;;;8.90;;
54177;SDS011;40085;53.004;6.770;2022-11-30T00:26:07;21.80;;;8.82;;
54177;SDS011;40085;53.004;6.770;2022-11-30T00:28:41;24.40;;;8.80;;
54177;SDS011;40085;53.004;6.770;2022-11-30T00:31:13;17.30;;;8.07;;
54177;SDS011;40085;53.004;6.770;2022-11-30T00:33:41;22.05;;;8.50;;
54177;SDS011;40085;53.004;6.770;2022-11-30T00:36:09;23.10;;;8.02;;
54177;SDS011;40085;53.004;6.770;2022-11-30T00:38:37;26.50;;;9.32;;
54177;SDS011;40085;53.004;6.770;2022-11-30T00:41:03;24.55;;;9.43;;
54177;SDS011;40085;53.004;6.770;2022-11-30T00:43:30;20.50;;;9.52;;
54177;SDS011;40085;53.004;6.770;2022-11-30T00:45:57;19.38;;;8.38;;
54177;SDS011;40085;53.004;6.770;2022-11-30T00:48:24;19.45;;;9.02;;
54177;SDS011;40085;53.004;6.770;2022-11-30T00:50:51;23.67;;;9.70;;
54177;SDS011;40085;53.004;6.770;2022-11-30T00:53:18;26.20;;;9.10;;
54177;SDS011;40085;53.004;6.770;2022-11-30T00:55:45;26.30;;;9.10;;
54177;SDS011;40085;53.004;6.770;2022-11-30T00:58:12;24.10;;;9.13;;
54177;SDS011;40085;53.004;6.770;2022-11-30T01:00:39;17.95;;;7.90;;
54177;SDS011;40085;53.004;6.770;2022-11-30T01:03:06;20.23;;;9.40;;
54177;SDS011;40085;53.004;6.770;2022-11-30T01:05:32;28.23;;;9.18;;
54177;SDS011;40085;53.004;6.770;2022-11-30T01:07:59;21.60;;;8.52;;
54177;SDS011;40085;53.004;6.770;2022-11-30T01:10:26;22.38;;;9.13;;
54177;SDS011;40085;53.004;6.770;2022-11-30T01:12:52;24.67;;;8.90;;
54177;SDS011;40085;53.004;6.770;2022-11-30T01:15:19;18.58;;;9.70;;
54177;SDS011;40085;53.004;6.770;2022-11-30T01:17:45;20.55;;;9.07;;
54177;SDS011;40085;53.004;6.770;2022-11-30T01:20:11;25.42;;;9.23;;
54177;SDS011;40085;53.004;6.770;2022-11-30T01:22:38;20.23;;;9.63;;
54177;SDS011;40085;53.004;6.770;2022-11-30T01:25:04;23.85;;;9.77;;
54177;SDS011;40085;53.004;6.770;2022-11-30T01:27:30;21.88;;;8.93;;
54177;SDS011;40085;53.004;6.770;2022-11-30T01:29:56;20.95;;;8.60;;
54177;SDS011;40085;53.004;6.770;2022-11-30T01:32:23;20.73;;;8.85;;
54177;SDS011;40085;53.004;6.770;2022-11-30T01:34:49;18.77;;;9.23;;
54177;SDS011;40085;53.004;6.770;2022-11-30T01:37:15;24.23;;;8.73;;
54177;SDS011;40085;53.004;6.770;2022-11-30T01:39:42;20.20;;;9.07;;
54177;SDS011;40085;53.004;6.770;2022-11-30T01:42:13;28.50;;;9.77;;
54177;SDS011;40085;53.004;6.770;2022-11-30T01:47:17;22.35;;;9.05;;
54177;SDS011;40085;53.004;6.770;2022-11-30T01:49:53;18.67;;;9.27;;
54177;SDS011;40085;53.004;6.770;2022-11-30T01:52:25;18.50;;;8.95;;
54177;SDS011;40085;53.004;6.770;2022-11-30T01:57:37;20.48;;;8.45;;
54177;SDS011;40085;53.004;6.770;2022-11-30T02:00:25;16.52;;;8.02;;
54177;SDS011;40085;53.004;6.770;2022-11-30T02:03:09;26.63;;;9.63;;
54177;SDS011;40085;53.004;6.770;2022-11-30T02:05:55;16.40;;;7.70;;
54177;SDS011;40085;53.004;6.770;2022-11-30T02:08:23;14.60;;;7.20;;
54177;SDS011;40085;53.004;6.770;2022-11-30T02:10:53;20.88;;;9.50;;
54177;SDS011;40085;53.004;6.770;2022-11-30T02:21:50;23.15;;;9.90;;
54177;SDS011;40085;53.004;6.770;2022-11-30T02:27:28;19.35;;;9.63;;
54177;SDS011;40085;53.004;6.770;2022-11-30T02:29:59;21.35;;;9.30;;
54177;SDS011;40085;53.004;6.770;2022-11-30T02:35:16;14.98;;;8.15;;
54177;SDS011;40085;53.004;6.770;2022-11-30T02:37:46;18.80;;;8.02;;
54177;SDS011;40085;53.004;6.770;2022-11-30T02:40:14;22.08;;;9.05;;
54177;SDS011;40085;53.004;6.770;2022-11-30T02:42:43;17.90;;;8.95;;
54177;SDS011;40085;53.004;6.770;2022-11-30T02:45:09;17.42;;;8.65;;
54177;SDS011;40085;53.004;6.770;2022-11-30T02:47:45;19.92;;;8.63;;
54177;SDS011;40085;53.004;6.770;2022-11-30T02:50:15;18.90;;;9.48;;
54177;SDS011;40085;53.004;6.770;2022-11-30T02:52:46;21.35;;;9.05;;
54177;SDS011;40085;53.004;6.770;2022-11-30T02:55:16;19.30;;;9.00;;
54177;SDS011;40085;53.004;6.770;2022-11-30T02:57:44;13.40;;;7.70;;
54177;SDS011;40085;53.004;6.770;2022-11-30T03:00:11;18.30;;;9.23;;
54177;SDS011;40085;53.004;6.770;2022-11-30T03:02:39;19.70;;;9.23;;
54177;SDS011;40085;53.004;6.770;2022-11-30T03:05:06;24.58;;;9.82;;
54177;SDS011;40085;53.004;6.770;2022-11-30T03:07:34;22.20;;;8.18;;
54177;SDS011;40085;53.004;6.770;2022-11-30T03:10:00;19.58;;;8.75;;
54177;SDS011;40085;53.004;6.770;2022-11-30T03:12:27;19.92;;;9.32;;
54177;SDS011;40085;53.004;6.770;2022-11-30T03:14:54;23.25;;;9.85;;
54177;SDS011;40085;53.004;6.770;2022-11-30T03:17:21;18.92;;;8.55;;
54177;SDS011;40085;53.004;6.770;2022-11-30T03:19:47;23.60;;;8.65;;
54177;SDS011;40085;53.004;6.770;2022-11-30T03:22:13;20.38;;;8.43;;
54177;SDS011;40085;53.004;6.770;2022-11-30T03:24:39;19.63;;;9.48;;
54177;SDS011;40085;53.004;6.770;2022-11-30T03:27:05;20.70;;;9.18;;
54177;SDS011;40085;53.004;6.770;2022-11-30T03:29:30;19.00;;;8.30;;
54177;SDS011;40085;53.004;6.770;2022-11-30T03:31:56;15.35;;;7.70;;
54177;SDS011;40085;53.004;6.770;2022-11-30T03:34:22;18.75;;;8.93;;
54177;SDS011;40085;53.004;6.770;2022-11-30T03:36:50;18.98;;;8.15;;
54177;SDS011;40085;53.004;6.770;2022-11-30T03:39:16;19.10;;;8.30;;
54177;SDS011;40085;53.004;6.770;2022-11-30T03:41:41;23.13;;;8.88;;
54177;SDS011;40085;53.004;6.770;2022-11-30T03:44:07;20.63;;;8.15;;
54177;SDS011;40085;53.004;6.770;2022-11-30T03:46:33;21.70;;;8.77;;
54177;SDS011;40085;53.004;6.770;2022-11-30T03:48:58;20.02;;;8.43;;
54177;SDS011;40085;53.004;6.770;2022-11-30T03:51:24;22.95;;;9.50;;
54177;SDS011;40085;53.004;6.770;2022-11-30T03:53:50;17.65;;;8.52;;
54177;SDS011;40085;53.004;6.770;2022-11-30T03:56:16;16.15;;;8.13;;
54177;SDS011;40085;53.004;6.770;2022-11-30T03:58:41;19.55;;;8.02;;
54177;SDS011;40085;53.004;6.770;2022-11-30T04:01:11;18.83;;;8.50;;
54177;SDS011;40085;53.004;6.770;2022-11-30T04:03:39;18.77;;;8.05;;
54177;SDS011;40085;53.004;6.770;2022-11-30T04:06:06;18.90;;;8.18;;
54177;SDS011;40085;53.004;6.770;2022-11-30T04:08:33;22.58;;;9.55;;
54177;SDS011;40085;53.004;6.770;2022-11-30T04:10:59;20.23;;;9.30;;
54177;SDS011;40085;53.004;6.770;2022-11-30T04:13:27;17.80;;;8.23;;
54177;SDS011;40085;53.004;6.770;2022-11-30T04:15:55;18.58;;;8.30;;
54177;SDS011;40085;53.004;6.770;2022-11-30T04:18:21;19.48;;;8.50;;
54177;SDS011;40085;53.004;6.770;2022-11-30T04:20:49;19.95;;;8.88;;
54177;SDS011;40085;53.004;6.770;2022-11-30T04:23:19;17.07;;;8.23;;
54177;SDS011;40085;53.004;6.770;2022-11-30T04:25:46;19.45;;;8.20;;
54177;SDS011;40085;53.004;6.770;2022-11-30T04:28:12;17.40;;;7.53;;
54177;SDS011;40085;53.004;6.770;2022-11-30T04:30:38;21.58;;;8.13;;
54177;SDS011;40085;53.004;6.770;2022-11-30T04:33:04;24.23;;;8.25;;
54177;SDS011;40085;53.004;6.770;2022-11-30T04:35:30;20.33;;;8.68;;
54177;SDS011;40085;53.004;6.770;2022-11-30T04:37:57;18.05;;;8.93;;
54177;SDS011;40085;53.004;6.770;2022-11-30T04:40:23;22.63;;;8.98;;
54177;SDS011;40085;53.004;6.770;2022-11-30T04:42:48;22.27;;;8.75;;
54177;SDS011;40085;53.004;6.770;2022-11-30T04:45:14;25.83;;;8.23;;
54177;SDS011;40085;53.004;6.770;2022-11-30T04:47:40;24.50;;;8.90;;
54177;SDS011;40085;53.004;6.770;2022-11-30T04:50:05;20.05;;;7.93;;
54177;SDS011;40085;53.004;6.770;2022-11-30T04:52:32;29.58;;;10.23;;
54177;SDS011;40085;53.004;6.770;2022-11-30T04:54:58;22.73;;;9.75;;
54177;SDS011;40085;53.004;6.770;2022-11-30T04:57:23;21.08;;;8.50;;
54177;SDS011;40085;53.004;6.770;2022-11-30T04:59:49;26.70;;;10.02;;
54177;SDS011;40085;53.004;6.770;2022-11-30T05:02:15;24.63;;;9.57;;
54177;SDS011;40085;53.004;6.770;2022-11-30T05:04:41;23.52;;;9.20;;
54177;SDS011;40085;53.004;6.770;2022-11-30T05:07:06;20.95;;;8.45;;
54177;SDS011;40085;53.004;6.770;2022-11-30T05:09:32;21.08;;;8.95;;
54177;SDS011;40085;53.004;6.770;2022-11-30T05:11:58;18.48;;;8.70;;
54177;SDS011;40085;53.004;6.770;2022-11-30T05:14:24;27.23;;;9.57;;
54177;SDS011;40085;53.004;6.770;2022-11-30T05:16:50;27.45;;;10.07;;
54177;SDS011;40085;53.004;6.770;2022-11-30T05:19:15;23.13;;;8.68;;
54177;SDS011;40085;53.004;6.770;2022-11-30T05:21:41;25.15;;;9.43;;
54177;SDS011;40085;53.004;6.770;2022-11-30T05:24:07;19.23;;;8.85;;
54177;SDS011;40085;53.004;6.770;2022-11-30T05:26:33;24.92;;;9.15;;
54177;SDS011;40085;53.004;6.770;2022-11-30T05:29:00;22.35;;;10.25;;
54177;SDS011;40085;53.004;6.770;2022-11-30T05:31:25;20.88;;;8.93;;
54177;SDS011;40085;53.004;6.770;2022-11-30T05:33:51;21.40;;;8.68;;
54177;SDS011;40085;53.004;6.770;2022-11-30T05:36:18;19.10;;;7.53;;
54177;SDS011;40085;53.004;6.770;2022-11-30T05:38:44;19.17;;;8.05;;
54177;SDS011;40085;53.004;6.770;2022-11-30T05:41:10;23.42;;;8.48;;
54177;SDS011;40085;53.004;6.770;2022-11-30T05:43:36;21.63;;;8.63;;
54177;SDS011;40085;53.004;6.770;2022-11-30T05:46:02;20.83;;;8.57;;
54177;SDS011;40085;53.004;6.770;2022-11-30T05:48:29;25.42;;;9.07;;
54177;SDS011;40085;53.004;6.770;2022-11-30T05:51:03;22.58;;;9.45;;
54177;SDS011;40085;53.004;6.770;2022-11-30T05:53:33;21.48;;;8.70;;
54177;SDS011;40085;53.004;6.770;2022-11-30T05:56:03;18.25;;;8.35;;
54177;SDS011;40085;53.004;6.770;2022-11-30T05:58:30;24.08;;;8.43;;
54177;SDS011;40085;53.004;6.770;2022-11-30T06:00:55;16.52;;;8.05;;
54177;SDS011;40085;53.004;6.770;2022-11-30T06:03:21;23.23;;;8.27;;
54177;SDS011;40085;53.004;6.770;2022-11-30T06:05:50;20.48;;;7.78;;
54177;SDS011;40085;53.004;6.770;2022-11-30T06:08:19;15.45;;;7.43;;
54177;SDS011;40085;53.004;6.770;2022-11-30T06:10:45;14.73;;;7.60;;
54177;SDS011;40085;53.004;6.770;2022-11-30T06:13:11;20.65;;;8.23;;
54177;SDS011;40085;53.004;6.770;2022-11-30T06:15:37;17.52;;;7.45;;
54177;SDS011;40085;53.004;6.770;2022-11-30T06:18:04;16.77;;;7.07;;
54177;SDS011;40085;53.004;6.770;2022-11-30T06:20:31;24.52;;;8.23;;
54177;SDS011;40085;53.004;6.770;2022-11-30T06:22:58;18.45;;;7.07;;
54177;SDS011;40085;53.004;6.770;2022-11-30T06:25:24;18.92;;;8.10;;
54177;SDS011;40085;53.004;6.770;2022-11-30T06:27:51;17.30;;;7.82;;
54177;SDS011;40085;53.004;6.770;2022-11-30T06:30:17;17.02;;;8.65;;
54177;SDS011;40085;53.004;6.770;2022-11-30T06:32:46;16.60;;;8.23;;
54177;SDS011;40085;53.004;6.770;2022-11-30T06:35:13;19.63;;;8.35;;
54177;SDS011;40085;53.004;6.770;2022-11-30T06:37:39;19.20;;;7.30;;
54177;SDS011;40085;53.004;6.770;2022-11-30T06:40:05;17.38;;;7.72;;
54177;SDS011;40085;53.004;6.770;2022-11-30T06:42:32;18.75;;;7.10;;
54177;SDS011;40085;53.004;6.770;2022-11-30T06:44:58;13.60;;;6.68;;
54177;SDS011;40085;53.004;6.770;2022-11-30T06:47:24;21.65;;;7.88;;
54177;SDS011;40085;53.004;6.770;2022-11-30T06:49:51;12.38;;;6.47;;
54177;SDS011;40085;53.004;6.770;2022-11-30T06:52:17;14.15;;;6.40;;
54177;SDS011;40085;53.004;6.770;2022-11-30T06:54:43;13.23;;;6.13;;
54177;SDS011;40085;53.004;6.770;2022-11-30T06:57:08;16.80;;;6.68;;
54177;SDS011;40085;53.004;6.770;2022-11-30T06:59:34;11.82;;;5.82;;
54177;SDS011;40085;53.004;6.770;2022-11-30T07:02:13;13.15;;;6.82;;
54177;SDS011;40085;53.004;6.770;2022-11-30T07:04:39;14.35;;;5.90;;
54177;SDS011;40085;53.004;6.770;2022-11-30T07:07:05;14.75;;;6.07;;
54177;SDS011;40085;53.004;6.770;2022-11-30T07:09:32;14.50;;;6.20;;
54177;SDS011;40085;53.004;6.770;2022-11-30T07:12:01;15.80;;;6.57;;
54177;SDS011;40085;53.004;6.770;2022-11-30T07:14:27;16.83;;;5.93;;
54177;SDS011;40085;53.004;6.770;2022-11-30T07:16:54;10.23;;;5.40;;
54177;SDS011;40085;53.004;6.770;2022-11-30T07:19:20;19.27;;;5.97;;
54177;SDS011;40085;53.004;6.770;2022-11-30T07:21:46;14.18;;;5.43;;
54177;SDS011;40085;53.004;6.770;2022-11-30T07:24:12;12.93;;;6.05;;
54177;SDS011;40085;53.004;6.770;2022-11-30T07:26:57;11.98;;;5.80;;
54177;SDS011;40085;53.004;6.770;2022-11-30T07:29:25;12.60;;;6.15;;
54177;SDS011;40085;53.004;6.770;2022-11-30T07:31:52;7.53;;;4.57;;
54177;SDS011;40085;53.004;6.770;2022-11-30T07:34:19;11.75;;;5.25;;
54177;SDS011;40085;53.004;6.770;2022-11-30T07:36:46;11.70;;;5.70;;
54177;SDS011;40085;53.004;6.770;2022-11-30T07:39:13;7.63;;;5.15;;
54177;SDS011;40085;53.004;6.770;2022-11-30T07:41:40;11.13;;;5.55;;
54177;SDS011;40085;53.004;6.770;2022-11-30T07:44:06;10.98;;;5.78;;
54177;SDS011;40085;53.004;6.770;2022-11-30T07:46:33;11.55;;;5.85;;
54177;SDS011;40085;53.004;6.770;2022-11-30T07:49:03;11.43;;;5.85;;
54177;SDS011;40085;53.004;6.770;2022-11-30T07:51:33;10.40;;;5.70;;
54177;SDS011;40085;53.004;6.770;2022-11-30T07:53:58;13.88;;;6.03;;
54177;SDS011;40085;53.004;6.770;2022-11-30T07:56:25;16.52;;;5.07;;
54177;SDS011;40085;53.004;6.770;2022-11-30T07:58:55;10.18;;;5.55;;
54177;SDS011;40085;53.004;6.770;2022-11-30T08:01:23;9.68;;;5.63;;
54177;SDS011;40085;53.004;6.770;2022-11-30T08:03:51;10.05;;;5.18;;
54177;SDS011;40085;53.004;6.770;2022-11-30T08:06:22;11.45;;;6.03;;
54177;SDS011;40085;53.004;6.770;2022-11-30T08:08:53;12.10;;;4.93;;
54177;SDS011;40085;53.004;6.770;2022-11-30T08:11:23;14.23;;;6.20;;
54177;SDS011;40085;53.004;6.770;2022-11-30T08:13:51;10.52;;;5.95;;
54177;SDS011;40085;53.004;6.770;2022-11-30T08:16:19;13.63;;;6.53;;
54177;SDS011;40085;53.004;6.770;2022-11-30T08:18:46;12.27;;;6.30;;
54177;SDS011;40085;53.004;6.770;2022-11-30T08:21:13;12.25;;;6.03;;
54177;SDS011;40085;53.004;6.770;2022-11-30T08:23:44;9.55;;;5.25;;
54177;SDS011;40085;53.004;6.770;2022-11-30T08:26:17;10.55;;;5.93;;
54177;SDS011;40085;53.004;6.770;2022-11-30T08:29:03;12.30;;;5.65;;
54177;SDS011;40085;53.004;6.770;2022-11-30T08:31:31;11.23;;;5.10;;
54177;SDS011;40085;53.004;6.770;2022-11-30T08:34:00;12.38;;;5.85;;
54177;SDS011;40085;53.004;6.770;2022-11-30T08:36:28;9.77;;;5.45;;
54177;SDS011;40085;53.004;6.770;2022-11-30T08:38:56;12.25;;;5.63;;
54177;SDS011;40085;53.004;6.770;2022-11-30T08:41:23;9.25;;;5.65;;
54177;SDS011;40085;53.004;6.770;2022-11-30T08:43:50;13.43;;;5.55;;
54177;SDS011;40085;53.004;6.770;2022-11-30T08:46:18;11.13;;;6.13;;
54177;SDS011;40085;53.004;6.770;2022-11-30T08:48:45;11.35;;;5.60;;
54177;SDS011;40085;53.004;6.770;2022-11-30T08:51:12;13.50;;;6.28;;
54177;SDS011;40085;53.004;6.770;2022-11-30T08:53:40;10.30;;;5.75;;
54177;SDS011;40085;53.004;6.770;2022-11-30T08:56:09;14.48;;;6.55;;
54177;SDS011;40085;53.004;6.770;2022-11-30T08:58:37;9.73;;;5.70;;
54177;SDS011;40085;53.004;6.770;2022-11-30T09:03:40;12.57;;;5.60;;
54177;SDS011;40085;53.004;6.770;2022-11-30T09:06:11;10.05;;;5.50;;
54177;SDS011;40085;53.004;6.770;2022-11-30T09:08:43;8.50;;;5.72;;
54177;SDS011;40085;53.004;6.770;2022-11-30T09:13:40;10.50;;;6.38;;
54177;SDS011;40085;53.004;6.770;2022-11-30T09:16:07;11.45;;;6.15;;
54177;SDS011;40085;53.004;6.770;2022-11-30T09:18:34;11.13;;;6.70;;
54177;SDS011;40085;53.004;6.770;2022-11-30T09:21:05;13.18;;;5.85;;
54177;SDS011;40085;53.004;6.770;2022-11-30T09:23:34;10.05;;;5.45;;
54177;SDS011;40085;53.004;6.770;2022-11-30T09:26:03;11.07;;;5.90;;
54177;SDS011;40085;53.004;6.770;2022-11-30T09:28:34;10.50;;;5.45;;
54177;SDS011;40085;53.004;6.770;2022-11-30T09:31:04;9.70;;;5.63;;
54177;SDS011;40085;53.004;6.770;2022-11-30T09:33:33;14.18;;;5.18;;
54177;SDS011;40085;53.004;6.770;2022-11-30T09:36:02;10.80;;;5.95;;
54177;SDS011;40085;53.004;6.770;2022-11-30T09:38:33;9.50;;;5.73;;
54177;SDS011;40085;53.004;6.770;2022-11-30T09:41:04;12.38;;;5.57;;
54177;SDS011;40085;53.004;6.770;2022-11-30T09:43:52;11.13;;;5.70;;
54177;SDS011;40085;53.004;6.770;2022-11-30T09:46:22;10.00;;;6.38;;
54177;SDS011;40085;53.004;6.770;2022-11-30T09:49:18;11.88;;;5.93;;
54177;SDS011;40085;53.004;6.770;2022-11-30T09:51:52;11.75;;;5.95;;
54177;SDS011;40085;53.004;6.770;2022-11-30T09:59:58;16.95;;;6.60;;
54177;SDS011;40085;53.004;6.770;2022-11-30T10:02:28;13.68;;;6.47;;
54177;SDS011;40085;53.004;6.770;2022-11-30T10:04:57;12.30;;;6.38;;
54177;SDS011;40085;53.004;6.770;2022-11-30T10:07:43;13.48;;;6.00;;
54177;SDS011;40085;53.004;6.770;2022-11-30T10:10:45;9.93;;;5.75;;
54177;SDS011;40085;53.004;6.770;2022-11-30T10:21:16;13.27;;;6.78;;
54177;SDS011;40085;53.004;6.770;2022-11-30T10:26:36;15.82;;;7.85;;
54177;SDS011;40085;53.004;6.770;2022-11-30T10:29:16;19.15;;;7.40;;
54177;SDS011;40085;53.004;6.770;2022-11-30T10:31:51;12.40;;;6.57;;
54177;SDS011;40085;53.004;6.770;2022-11-30T10:37:05;14.20;;;7.05;;
54177;SDS011;40085;53.004;6.770;2022-11-30T10:39:40;17.50;;;8.23;;
54177;SDS011;40085;53.004;6.770;2022-11-30T10:42:10;11.00;;;6.22;;
54177;SDS011;40085;53.004;6.770;2022-11-30T10:44:50;15.38;;;6.90;;
54177;SDS011;40085;53.004;6.770;2022-11-30T10:47:22;16.17;;;7.10;;
54177;SDS011;40085;53.004;6.770;2022-11-30T10:49:53;17.40;;;6.97;;
54177;SDS011;40085;53.004;6.770;2022-11-30T10:52:26;16.10;;;6.50;;
54177;SDS011;40085;53.004;6.770;2022-11-30T10:54:56;17.80;;;8.18;;
54177;SDS011;40085;53.004;6.770;2022-11-30T10:57:25;21.25;;;8.95;;
54177;SDS011;40085;53.004;6.770;2022-11-30T10:59:55;17.95;;;7.75;;
54177;SDS011;40085;53.004;6.770;2022-11-30T11:02:37;16.33;;;8.52;;
54177;SDS011;40085;53.004;6.770;2022-11-30T11:05:07;20.27;;;8.38;;
54177;SDS011;40085;53.004;6.770;2022-11-30T11:08:15;24.35;;;8.10;;
54177;SDS011;40085;53.004;6.770;2022-11-30T11:10:47;17.73;;;8.02;;
54177;SDS011;40085;53.004;6.770;2022-11-30T11:13:16;17.60;;;8.27;;
54177;SDS011;40085;53.004;6.770;2022-11-30T11:16:06;14.57;;;7.38;;
54177;SDS011;40085;53.004;6.770;2022-11-30T11:18:34;17.50;;;8.30;;
54177;SDS011;40085;53.004;6.770;2022-11-30T11:21:05;17.15;;;8.35;;
54177;SDS011;40085;53.004;6.770;2022-11-30T11:23:41;20.13;;;8.30;;
54177;SDS011;40085;53.004;6.770;2022-11-30T11:26:15;19.80;;;8.95;;
54177;SDS011;40085;53.004;6.770;2022-11-30T11:28:48;24.08;;;9.77;;
54177;SDS011;40085;53.004;6.770;2022-11-30T11:33:57;18.67;;;9.23;;
54177;SDS011;40085;53.004;6.770;2022-11-30T11:36:24;17.02;;;8.90;;
54177;SDS011;40085;53.004;6.770;2022-11-30T11:38:55;16.45;;;8.20;;
54177;SDS011;40085;53.004;6.770;2022-11-30T11:46:33;14.27;;;7.30;;
54177;SDS011;40085;53.004;6.770;2022-11-30T11:49:23;18.58;;;8.15;;
54177;SDS011;40085;53.004;6.770;2022-11-30T11:51:59;19.83;;;8.10;;
54177;SDS011;40085;53.004;6.770;2022-11-30T11:54:49;18.85;;;9.07;;
54177;SDS011;40085;53.004;6.770;2022-11-30T11:57:20;18.67;;;8.52;;
54177;SDS011;40085;53.004;6.770;2022-11-30T12:05:14;16.98;;;8.15;;
54177;SDS011;40085;53.004;6.770;2022-11-30T12:08:13;15.30;;;7.97;;
54177;SDS011;40085;53.004;6.770;2022-11-30T12:11:01;23.70;;;9.50;;
54177;SDS011;40085;53.004;6.770;2022-11-30T12:13:32;19.25;;;9.07;;
54177;SDS011;40085;53.004;6.770;2022-11-30T12:23:50;24.92;;;10.10;;
54177;SDS011;40085;53.004;6.770;2022-11-30T12:34:31;22.73;;;10.20;;
54177;SDS011;40085;53.004;6.770;2022-11-30T12:42:47;24.50;;;9.38;;
54177;SDS011;40085;53.004;6.770;2022-11-30T12:45:36;28.50;;;11.00;;
54177;SDS011;40085;53.004;6.770;2022-11-30T12:48:14;27.35;;;11.30;;
54177;SDS011;40085;53.004;6.770;2022-11-30T12:50:51;29.75;;;11.80;;
54177;SDS011;40085;53.004;6.770;2022-11-30T12:53:50;22.95;;;10.68;;
54177;SDS011;40085;53.004;6.770;2022-11-30T12:56:37;34.15;;;11.93;;
54177;SDS011;40085;53.004;6.770;2022-11-30T13:05:37;27.70;;;11.93;;
54177;SDS011;40085;53.004;6.770;2022-11-30T13:10:44;32.63;;;12.82;;
54177;SDS011;40085;53.004;6.770;2022-11-30T13:13:17;40.47;;;12.68;;
54177;SDS011;40085;53.004;6.770;2022-11-30T13:15:45;30.83;;;12.20;;
54177;SDS011;40085;53.004;6.770;2022-11-30T13:18:17;30.58;;;11.40;;
54177;SDS011;40085;53.004;6.770;2022-11-30T13:20:52;32.85;;;13.10;;
54177;SDS011;40085;53.004;6.770;2022-11-30T13:32:13;33.97;;;11.88;;
54177;SDS011;40085;53.004;6.770;2022-11-30T13:34:40;25.80;;;11.80;;
54177;SDS011;40085;53.004;6.770;2022-11-30T13:47:36;32.85;;;12.35;;
54177;SDS011;40085;53.004;6.770;2022-11-30T13:53:08;28.00;;;11.75;;
54177;SDS011;40085;53.004;6.770;2022-11-30T13:58:14;28.05;;;11.55;;
54177;SDS011;40085;53.004;6.770;2022-11-30T14:00:43;34.70;;;11.57;;
54177;SDS011;40085;53.004;6.770;2022-11-30T14:03:29;30.02;;;11.52;;
54177;SDS011;40085;53.004;6.770;2022-11-30T14:08:59;33.47;;;12.07;;
54177;SDS011;40085;53.004;6.770;2022-11-30T14:17:12;36.83;;;12.25;;
54177;SDS011;40085;53.004;6.770;2022-11-30T14:19:49;32.42;;;11.77;;
54177;SDS011;40085;53.004;6.770;2022-11-30T14:22:18;29.38;;;12.20;;
54177;SDS011;40085;53.004;6.770;2022-11-30T14:24:45;37.97;;;13.25;;
54177;SDS011;40085;53.004;6.770;2022-11-30T14:27:14;34.25;;;12.27;;
54177;SDS011;40085;53.004;6.770;2022-11-30T14:29:53;28.95;;;11.68;;
54177;SDS011;40085;53.004;6.770;2022-11-30T14:32:34;27.20;;;10.80;;
54177;SDS011;40085;53.004;6.770;2022-11-30T14:35:11;30.52;;;10.60;;
54177;SDS011;40085;53.004;6.770;2022-11-30T14:38:02;33.08;;;12.38;;
54177;SDS011;40085;53.004;6.770;2022-11-30T14:40:28;27.65;;;11.82;;
54177;SDS011;40085;53.004;6.770;2022-11-30T14:42:59;32.17;;;12.52;;
54177;SDS011;40085;53.004;6.770;2022-11-30T14:45:27;23.25;;;11.23;;
54177;SDS011;40085;53.004;6.770;2022-11-30T14:50:42;31.63;;;12.02;;
54177;SDS011;40085;53.004;6.770;2022-11-30T15:01:56;27.77;;;10.48;;
54177;SDS011;40085;53.004;6.770;2022-11-30T15:04:25;30.50;;;11.57;;
54177;SDS011;40085;53.004;6.770;2022-11-30T15:06:54;31.70;;;12.15;;
54177;SDS011;40085;53.004;6.770;2022-11-30T15:09:30;24.83;;;11.82;;
54177;SDS011;40085;53.004;6.770;2022-11-30T15:11:57;30.25;;;11.93;;
54177;SDS011;40085;53.004;6.770;2022-11-30T15:14:24;30.10;;;11.82;;
54177;SDS011;40085;53.004;6.770;2022-11-30T15:16:51;35.55;;;13.70;;
54177;SDS011;40085;53.004;6.770;2022-11-30T15:19:32;34.10;;;12.60;;
54177;SDS011;40085;53.004;6.770;2022-11-30T15:21:59;35.08;;;11.02;;
54177;SDS011;40085;53.004;6.770;2022-11-30T15:24:26;31.20;;;13.32;;
54177;SDS011;40085;53.004;6.770;2022-11-30T15:29:44;30.35;;;13.07;;
54177;SDS011;40085;53.004;6.770;2022-11-30T15:32:22;29.95;;;12.02;;
54177;SDS011;40085;53.004;6.770;2022-11-30T15:34:53;31.67;;;13.52;;
54177;SDS011;40085;53.004;6.770;2022-11-30T15:37:32;31.30;;;13.82;;
54177;SDS011;40085;53.004;6.770;2022-11-30T15:40:04;29.08;;;11.85;;
54177;SDS011;40085;53.004;6.770;2022-11-30T15:42:35;29.33;;;12.00;;
54177;SDS011;40085;53.004;6.770;2022-11-30T15:45:15;29.73;;;12.15;;
54177;SDS011;40085;53.004;6.770;2022-11-30T15:47:52;32.10;;;12.68;;
54177;SDS011;40085;53.004;6.770;2022-11-30T15:50:29;29.20;;;11.02;;
54177;SDS011;40085;53.004;6.770;2022-11-30T15:53:24;26.13;;;11.43;;
54177;SDS011;40085;53.004;6.770;2022-11-30T16:01:11;24.33;;;10.80;;
54177;SDS011;40085;53.004;6.770;2022-11-30T16:04:14;28.50;;;11.07;;
54177;SDS011;40085;53.004;6.770;2022-11-30T16:06:35;29.77;;;12.18;;
54177;SDS011;40085;53.004;6.770;2022-11-30T16:11:49;29.02;;;11.27;;
54177;SDS011;40085;53.004;6.770;2022-11-30T16:14:18;22.05;;;10.88;;
54177;SDS011;40085;53.004;6.770;2022-11-30T16:16:45;27.67;;;11.18;;
54177;SDS011;40085;53.004;6.770;2022-11-30T16:19:12;26.55;;;10.40;;
54177;SDS011;40085;53.004;6.770;2022-11-30T16:21:38;26.90;;;12.32;;
54177;SDS011;40085;53.004;6.770;2022-11-30T16:24:05;32.17;;;11.25;;
54177;SDS011;40085;53.004;6.770;2022-11-30T16:26:33;22.88;;;10.20;;
54177;SDS011;40085;53.004;6.770;2022-11-30T16:28:59;26.55;;;11.93;;
54177;SDS011;40085;53.004;6.770;2022-11-30T16:31:24;26.90;;;11.20;;
54177;SDS011;40085;53.004;6.770;2022-11-30T16:33:51;23.02;;;11.50;;
54177;SDS011;40085;53.004;6.770;2022-11-30T16:36:17;21.23;;;10.57;;
54177;SDS011;40085;53.004;6.770;2022-11-30T16:38:48;27.48;;;10.73;;
54177;SDS011;40085;53.004;6.770;2022-11-30T16:43:41;30.80;;;10.63;;
54177;SDS011;40085;53.004;6.770;2022-11-30T16:46:11;27.25;;;11.90;;
54177;SDS011;40085;53.004;6.770;2022-11-30T16:48:43;26.65;;;11.88;;
54177;SDS011;40085;53.004;6.770;2022-11-30T16:51:17;26.15;;;10.90;;
54177;SDS011;40085;53.004;6.770;2022-11-30T16:53:47;26.90;;;10.05;;
54177;SDS011;40085;53.004;6.770;2022-11-30T16:56:14;22.77;;;11.23;;
54177;SDS011;40085;53.004;6.770;2022-11-30T16:58:41;27.08;;;11.48;;
54177;SDS011;40085;53.004;6.770;2022-11-30T17:01:15;23.05;;;10.88;;
54177;SDS011;40085;53.004;6.770;2022-11-30T17:03:45;27.83;;;11.75;;
54177;SDS011;40085;53.004;6.770;2022-11-30T17:06:18;26.30;;;11.60;;
54177;SDS011;40085;53.004;6.770;2022-11-30T17:08:47;28.83;;;12.43;;
54177;SDS011;40085;53.004;6.770;2022-11-30T17:11:22;27.02;;;12.60;;
54177;SDS011;40085;53.004;6.770;2022-11-30T17:13:54;23.10;;;10.88;;